sensor_id;sensor_type;location;lat;lon;timestamp;P1;durP1;ratioP1;P2;durP2;ratioP2
54023;SDS011;49584;38.820;-121.162;2022-09-11T00:02:10;32.25;;;11.60;;
54023;SDS011;49584;38.820;-121.162;2022-09-11T00:07:11;30.75;;;11.63;;
54023;SDS011;49584;38.820;-121.162;2022-09-11T00:12:12;27.73;;;12.18;;
54023;SDS011;49584;38.820;-121.162;2022-09-11T00:17:13;27.58;;;11.65;;
54023;SDS011;49584;38.820;-121.162;2022-09-11T00:22:16;25.98;;;11.07;;
54023;SDS011;49584;38.820;-121.162;2022-09-11T00:27:17;26.02;;;11.52;;
54023;SDS011;49584;38.820;-121.162;2022-09-11T00:32:18;33.33;;;12.00;;
54023;SDS011;49584;38.820;-121.162;2022-09-11T00:37:20;23.75;;;11.52;;
54023;SDS011;49584;38.820;-121.162;2022-09-11T00:42:21;23.00;;;12.05;;
54023;SDS011;49584;38.820;-121.162;2022-09-11T00:47:22;24.05;;;12.13;;
54023;SDS011;49584;38.820;-121.162;2022-09-11T00:52:24;25.52;;;12.48;;
54023;SDS011;49584;38.820;-121.162;2022-09-11T00:57:31;27.83;;;11.50;;
54023;SDS011;49584;38.820;-121.162;2022-09-11T01:02:39;29.63;;;12.10;;
54023;SDS011;49584;38.820;-121.162;2022-09-11T01:07:42;30.10;;;13.25;;
54023;SDS011;49584;38.820;-121.162;2022-09-11T01:18:12;26.25;;;12.50;;
54023;SDS011;49584;38.820;-121.162;2022-09-11T01:28:45;23.85;;;12.18;;
54023;SDS011;49584;38.820;-121.162;2022-09-11T01:33:50;22.90;;;10.98;;
54023;SDS011;49584;38.820;-121.162;2022-09-11T01:38:59;27.98;;;11.05;;
54023;SDS011;49584;38.820;-121.162;2022-09-11T01:44:46;25.92;;;10.45;;
54023;SDS011;49584;38.820;-121.162;2022-09-11T01:49:33;24.48;;;11.20;;
54023;SDS011;49584;38.820;-121.162;2022-09-11T01:54:40;32.27;;;11.97;;
54023;SDS011;49584;38.820;-121.162;2022-09-11T01:59:47;23.80;;;11.77;;
54023;SDS011;49584;38.820;-121.162;2022-09-11T02:10:11;21.30;;;11.57;;
54023;SDS011;49584;38.820;-121.162;2022-09-11T02:15:24;25.27;;;11.80;;
54023;SDS011;49584;38.820;-121.162;2022-09-11T02:20:30;22.52;;;10.88;;
54023;SDS011;49584;38.820;-121.162;2022-09-11T02:25:31;30.10;;;10.77;;
54023;SDS011;49584;38.820;-121.162;2022-09-11T02:30:32;25.30;;;10.68;;
54023;SDS011;49584;38.820;-121.162;2022-09-11T02:35:39;24.13;;;10.60;;
54023;SDS011;49584;38.820;-121.162;2022-09-11T02:41:11;26.00;;;10.65;;
54023;SDS011;49584;38.820;-121.162;2022-09-11T02:51:38;25.00;;;11.35;;
54023;SDS011;49584;38.820;-121.162;2022-09-11T02:57:07;25.02;;;11.18;;
54023;SDS011;49584;38.820;-121.162;2022-09-11T03:02:30;22.20;;;10.95;;
54023;SDS011;49584;38.820;-121.162;2022-09-11T03:07:36;22.13;;;11.17;;
54023;SDS011;49584;38.820;-121.162;2022-09-11T03:12:38;32.35;;;12.27;;
54023;SDS011;49584;38.820;-121.162;2022-09-11T03:17:41;32.35;;;12.13;;
54023;SDS011;49584;38.820;-121.162;2022-09-11T03:22:42;25.00;;;12.52;;
54023;SDS011;49584;38.820;-121.162;2022-09-11T03:27:43;24.60;;;12.45;;
54023;SDS011;49584;38.820;-121.162;2022-09-11T03:32:44;22.27;;;12.18;;
54023;SDS011;49584;38.820;-121.162;2022-09-11T03:37:45;23.95;;;12.80;;
54023;SDS011;49584;38.820;-121.162;2022-09-11T03:42:46;23.08;;;12.82;;
54023;SDS011;49584;38.820;-121.162;2022-09-11T03:47:47;23.27;;;12.10;;
54023;SDS011;49584;38.820;-121.162;2022-09-11T03:52:49;25.13;;;12.95;;
54023;SDS011;49584;38.820;-121.162;2022-09-11T03:57:50;26.48;;;12.80;;
54023;SDS011;49584;38.820;-121.162;2022-09-11T04:02:51;25.77;;;13.50;;
54023;SDS011;49584;38.820;-121.162;2022-09-11T04:07:54;26.70;;;12.95;;
54023;SDS011;49584;38.820;-121.162;2022-09-11T04:12:55;34.13;;;14.10;;
54023;SDS011;49584;38.820;-121.162;2022-09-11T04:17:57;25.33;;;14.98;;
54023;SDS011;49584;38.820;-121.162;2022-09-11T04:22:58;26.88;;;15.38;;
54023;SDS011;49584;38.820;-121.162;2022-09-11T04:27:59;32.33;;;15.77;;
54023;SDS011;49584;38.820;-121.162;2022-09-11T04:33:01;26.05;;;15.80;;
54023;SDS011;49584;38.820;-121.162;2022-09-11T04:38:02;29.42;;;17.15;;
54023;SDS011;49584;38.820;-121.162;2022-09-11T04:43:03;31.98;;;17.40;;
54023;SDS011;49584;38.820;-121.162;2022-09-11T04:48:05;28.13;;;16.98;;
54023;SDS011;49584;38.820;-121.162;2022-09-11T04:53:06;25.83;;;16.88;;
54023;SDS011;49584;38.820;-121.162;2022-09-11T04:58:08;27.48;;;18.15;;
54023;SDS011;49584;38.820;-121.162;2022-09-11T05:03:09;32.13;;;17.95;;
54023;SDS011;49584;38.820;-121.162;2022-09-11T05:08:10;32.63;;;17.98;;
54023;SDS011;49584;38.820;-121.162;2022-09-11T05:13:12;29.85;;;17.98;;
54023;SDS011;49584;38.820;-121.162;2022-09-11T05:18:13;32.47;;;18.83;;
54023;SDS011;49584;38.820;-121.162;2022-09-11T05:23:15;32.40;;;18.92;;
54023;SDS011;49584;38.820;-121.162;2022-09-11T05:28:16;29.83;;;18.73;;
54023;SDS011;49584;38.820;-121.162;2022-09-11T05:33:17;31.90;;;19.13;;
54023;SDS011;49584;38.820;-121.162;2022-09-11T05:38:19;32.97;;;18.95;;
54023;SDS011;49584;38.820;-121.162;2022-09-11T05:43:21;30.45;;;18.38;;
54023;SDS011;49584;38.820;-121.162;2022-09-11T05:48:22;29.13;;;18.15;;
54023;SDS011;49584;38.820;-121.162;2022-09-11T05:53:25;30.60;;;18.25;;
54023;SDS011;49584;38.820;-121.162;2022-09-11T05:58:30;31.52;;;18.55;;
54023;SDS011;49584;38.820;-121.162;2022-09-11T06:03:32;31.00;;;18.20;;
54023;SDS011;49584;38.820;-121.162;2022-09-11T06:08:34;33.70;;;18.90;;
54023;SDS011;49584;38.820;-121.162;2022-09-11T06:13:37;30.65;;;18.95;;
54023;SDS011;49584;38.820;-121.162;2022-09-11T06:18:40;30.98;;;18.25;;
54023;SDS011;49584;38.820;-121.162;2022-09-11T06:23:41;31.27;;;19.58;;
54023;SDS011;49584;38.820;-121.162;2022-09-11T06:28:42;33.40;;;19.65;;
54023;SDS011;49584;38.820;-121.162;2022-09-11T06:33:44;31.60;;;18.90;;
54023;SDS011;49584;38.820;-121.162;2022-09-11T06:38:50;30.50;;;18.85;;
54023;SDS011;49584;38.820;-121.162;2022-09-11T06:43:54;29.90;;;18.10;;
54023;SDS011;49584;38.820;-121.162;2022-09-11T06:48:56;26.05;;;17.23;;
54023;SDS011;49584;38.820;-121.162;2022-09-11T06:53:57;30.45;;;17.85;;
54023;SDS011;49584;38.820;-121.162;2022-09-11T06:59:01;27.70;;;17.42;;
54023;SDS011;49584;38.820;-121.162;2022-09-11T07:04:02;30.65;;;18.42;;
54023;SDS011;49584;38.820;-121.162;2022-09-11T07:09:03;28.30;;;17.38;;
54023;SDS011;49584;38.820;-121.162;2022-09-11T07:14:04;40.17;;;19.00;;
54023;SDS011;49584;38.820;-121.162;2022-09-11T07:19:06;32.22;;;18.52;;
54023;SDS011;49584;38.820;-121.162;2022-09-11T07:24:09;27.58;;;17.40;;
54023;SDS011;49584;38.820;-121.162;2022-09-11T07:29:10;31.90;;;18.45;;
54023;SDS011;49584;38.820;-121.162;2022-09-11T07:34:14;31.67;;;18.02;;
54023;SDS011;49584;38.820;-121.162;2022-09-11T07:39:16;30.08;;;18.17;;
54023;SDS011;49584;38.820;-121.162;2022-09-11T07:44:17;30.48;;;17.75;;
54023;SDS011;49584;38.820;-121.162;2022-09-11T07:49:19;31.88;;;18.30;;
54023;SDS011;49584;38.820;-121.162;2022-09-11T07:54:21;29.45;;;17.67;;
54023;SDS011;49584;38.820;-121.162;2022-09-11T07:59:22;28.95;;;17.75;;
54023;SDS011;49584;38.820;-121.162;2022-09-11T08:04:24;30.48;;;18.55;;
54023;SDS011;49584;38.820;-121.162;2022-09-11T08:09:25;29.27;;;19.17;;
54023;SDS011;49584;38.820;-121.162;2022-09-11T08:14:27;29.90;;;19.85;;
54023;SDS011;49584;38.820;-121.162;2022-09-11T08:19:28;27.98;;;18.65;;
54023;SDS011;49584;38.820;-121.162;2022-09-11T08:24:29;29.33;;;18.60;;
54023;SDS011;49584;38.820;-121.162;2022-09-11T08:29:30;32.35;;;19.60;;
54023;SDS011;49584;38.820;-121.162;2022-09-11T08:34:32;30.25;;;20.00;;
54023;SDS011;49584;38.820;-121.162;2022-09-11T08:39:33;31.92;;;20.15;;
54023;SDS011;49584;38.820;-121.162;2022-09-11T08:50:07;34.47;;;22.55;;
54023;SDS011;49584;38.820;-121.162;2022-09-11T08:55:24;38.85;;;24.20;;
54023;SDS011;49584;38.820;-121.162;2022-09-11T09:21:39;34.13;;;25.05;;
54023;SDS011;49584;38.820;-121.162;2022-09-11T09:26:49;39.08;;;26.58;;
54023;SDS011;49584;38.820;-121.162;2022-09-11T09:31:56;38.38;;;25.77;;
54023;SDS011;49584;38.820;-121.162;2022-09-11T09:37:16;40.00;;;27.08;;
54023;SDS011;49584;38.820;-121.162;2022-09-11T09:52:46;39.20;;;26.17;;
54023;SDS011;49584;38.820;-121.162;2022-09-11T09:57:49;37.58;;;25.48;;
54023;SDS011;49584;38.820;-121.162;2022-09-11T10:02:53;34.67;;;24.55;;
54023;SDS011;49584;38.820;-121.162;2022-09-11T10:13:03;39.67;;;28.33;;
54023;SDS011;49584;38.820;-121.162;2022-09-11T10:23:44;35.33;;;25.48;;
54023;SDS011;49584;38.820;-121.162;2022-09-11T10:28:49;41.13;;;26.63;;
54023;SDS011;49584;38.820;-121.162;2022-09-11T10:33:58;41.00;;;26.27;;
54023;SDS011;49584;38.820;-121.162;2022-09-11T10:39:00;39.28;;;26.50;;
54023;SDS011;49584;38.820;-121.162;2022-09-11T10:44:02;40.08;;;25.83;;
54023;SDS011;49584;38.820;-121.162;2022-09-11T10:49:15;38.83;;;25.73;;
54023;SDS011;49584;38.820;-121.162;2022-09-11T10:54:25;39.55;;;25.73;;
54023;SDS011;49584;38.820;-121.162;2022-09-11T11:00:11;40.20;;;26.58;;
54023;SDS011;49584;38.820;-121.162;2022-09-11T11:10:35;39.17;;;28.52;;
54023;SDS011;49584;38.820;-121.162;2022-09-11T11:16:42;43.63;;;29.08;;
54023;SDS011;49584;38.820;-121.162;2022-09-11T11:37:38;46.77;;;29.60;;
54023;SDS011;49584;38.820;-121.162;2022-09-11T11:42:43;46.83;;;29.00;;
54023;SDS011;49584;38.820;-121.162;2022-09-11T11:47:52;43.08;;;30.50;;
54023;SDS011;49584;38.820;-121.162;2022-09-11T11:58:43;57.65;;;31.88;;
54023;SDS011;49584;38.820;-121.162;2022-09-11T12:03:53;46.85;;;30.80;;
54023;SDS011;49584;38.820;-121.162;2022-09-11T12:08:56;46.53;;;30.55;;
54023;SDS011;49584;38.820;-121.162;2022-09-11T12:13:57;41.95;;;29.25;;
54023;SDS011;49584;38.820;-121.162;2022-09-11T12:19:11;46.95;;;30.27;;
54023;SDS011;49584;38.820;-121.162;2022-09-11T12:24:14;47.47;;;29.38;;
54023;SDS011;49584;38.820;-121.162;2022-09-11T13:00:39;49.38;;;31.63;;
54023;SDS011;49584;38.820;-121.162;2022-09-11T13:05:43;51.55;;;33.75;;
54023;SDS011;49584;38.820;-121.162;2022-09-11T13:10:52;47.72;;;31.98;;
54023;SDS011;49584;38.820;-121.162;2022-09-11T13:16:23;55.83;;;32.95;;
54023;SDS011;49584;38.820;-121.162;2022-09-11T13:21:24;47.63;;;33.65;;
54023;SDS011;49584;38.820;-121.162;2022-09-11T13:26:35;49.95;;;33.25;;
54023;SDS011;49584;38.820;-121.162;2022-09-11T13:31:36;41.42;;;29.50;;
54023;SDS011;49584;38.820;-121.162;2022-09-11T13:36:38;45.67;;;29.98;;
54023;SDS011;49584;38.820;-121.162;2022-09-11T13:41:41;50.78;;;28.63;;
54023;SDS011;49584;38.820;-121.162;2022-09-11T13:46:47;43.08;;;27.73;;
54023;SDS011;49584;38.820;-121.162;2022-09-11T13:51:51;39.53;;;27.90;;
54023;SDS011;49584;38.820;-121.162;2022-09-11T14:01:56;43.50;;;29.30;;
54023;SDS011;49584;38.820;-121.162;2022-09-11T14:07:00;42.08;;;26.50;;
54023;SDS011;49584;38.820;-121.162;2022-09-11T14:12:02;42.22;;;26.98;;
54023;SDS011;49584;38.820;-121.162;2022-09-11T14:17:03;41.15;;;27.20;;
54023;SDS011;49584;38.820;-121.162;2022-09-11T14:22:13;44.47;;;26.85;;
54023;SDS011;49584;38.820;-121.162;2022-09-11T14:27:33;40.40;;;25.58;;
54023;SDS011;49584;38.820;-121.162;2022-09-11T14:32:36;38.63;;;26.25;;
54023;SDS011;49584;38.820;-121.162;2022-09-11T14:37:38;48.40;;;27.58;;
54023;SDS011;49584;38.820;-121.162;2022-09-11T14:42:44;42.50;;;26.15;;
54023;SDS011;49584;38.820;-121.162;2022-09-11T14:47:47;37.80;;;25.27;;
54023;SDS011;49584;38.820;-121.162;2022-09-11T14:52:48;39.05;;;26.00;;
54023;SDS011;49584;38.820;-121.162;2022-09-11T14:57:49;39.80;;;25.55;;
54023;SDS011;49584;38.820;-121.162;2022-09-11T15:02:50;37.60;;;24.25;;
54023;SDS011;49584;38.820;-121.162;2022-09-11T15:07:51;37.33;;;25.05;;
54023;SDS011;49584;38.820;-121.162;2022-09-11T15:12:53;39.67;;;25.63;;
54023;SDS011;49584;38.820;-121.162;2022-09-11T15:17:55;41.78;;;27.35;;
54023;SDS011;49584;38.820;-121.162;2022-09-11T15:22:56;36.78;;;26.45;;
54023;SDS011;49584;38.820;-121.162;2022-09-11T15:27:57;36.47;;;26.75;;
54023;SDS011;49584;38.820;-121.162;2022-09-11T15:32:58;39.45;;;27.60;;
54023;SDS011;49584;38.820;-121.162;2022-09-11T15:38:00;37.35;;;26.70;;
54023;SDS011;49584;38.820;-121.162;2022-09-11T15:43:03;40.75;;;28.75;;
54023;SDS011;49584;38.820;-121.162;2022-09-11T15:48:04;42.13;;;30.35;;
54023;SDS011;49584;38.820;-121.162;2022-09-11T15:53:05;43.35;;;28.13;;
54023;SDS011;49584;38.820;-121.162;2022-09-11T15:58:07;40.17;;;28.48;;
54023;SDS011;49584;38.820;-121.162;2022-09-11T16:03:09;39.55;;;29.38;;
54023;SDS011;49584;38.820;-121.162;2022-09-11T16:08:11;44.00;;;28.50;;
54023;SDS011;49584;38.820;-121.162;2022-09-11T16:13:12;45.65;;;29.80;;
54023;SDS011;49584;38.820;-121.162;2022-09-11T16:18:13;39.28;;;27.85;;
54023;SDS011;49584;38.820;-121.162;2022-09-11T16:23:18;43.40;;;27.85;;
54023;SDS011;49584;38.820;-121.162;2022-09-11T16:28:21;38.13;;;26.65;;
54023;SDS011;49584;38.820;-121.162;2022-09-11T16:33:22;37.67;;;28.00;;
54023;SDS011;49584;38.820;-121.162;2022-09-11T16:38:24;38.00;;;27.98;;
54023;SDS011;49584;38.820;-121.162;2022-09-11T16:43:25;35.22;;;27.50;;
54023;SDS011;49584;38.820;-121.162;2022-09-11T16:48:27;40.58;;;28.92;;
54023;SDS011;49584;38.820;-121.162;2022-09-11T16:53:29;40.50;;;27.95;;
54023;SDS011;49584;38.820;-121.162;2022-09-11T16:58:32;36.40;;;27.98;;
54023;SDS011;49584;38.820;-121.162;2022-09-11T17:03:34;45.83;;;30.05;;
54023;SDS011;49584;38.820;-121.162;2022-09-11T17:08:35;43.80;;;32.22;;
54023;SDS011;49584;38.820;-121.162;2022-09-11T17:13:38;41.72;;;31.67;;
54023;SDS011;49584;38.820;-121.162;2022-09-11T17:18:40;50.50;;;35.22;;
54023;SDS011;49584;38.820;-121.162;2022-09-11T17:23:44;47.92;;;35.08;;
54023;SDS011;49584;38.820;-121.162;2022-09-11T17:28:48;44.78;;;33.80;;
54023;SDS011;49584;38.820;-121.162;2022-09-11T17:33:51;43.40;;;34.58;;
54023;SDS011;49584;38.820;-121.162;2022-09-11T17:38:52;47.45;;;35.47;;
54023;SDS011;49584;38.820;-121.162;2022-09-11T17:43:54;43.35;;;33.35;;
54023;SDS011;49584;38.820;-121.162;2022-09-11T17:48:55;49.75;;;34.08;;
54023;SDS011;49584;38.820;-121.162;2022-09-11T17:53:57;40.15;;;33.17;;
54023;SDS011;49584;38.820;-121.162;2022-09-11T18:04:08;39.47;;;32.60;;
54023;SDS011;49584;38.820;-121.162;2022-09-11T18:09:12;42.53;;;33.03;;
54023;SDS011;49584;38.820;-121.162;2022-09-11T18:14:18;44.83;;;37.20;;
54023;SDS011;49584;38.820;-121.162;2022-09-11T18:19:20;46.72;;;36.28;;
54023;SDS011;49584;38.820;-121.162;2022-09-11T18:24:21;46.25;;;37.17;;
54023;SDS011;49584;38.820;-121.162;2022-09-11T18:29:23;47.92;;;39.55;;
54023;SDS011;49584;38.820;-121.162;2022-09-11T18:34:26;46.03;;;39.38;;
54023;SDS011;49584;38.820;-121.162;2022-09-11T18:39:28;56.70;;;45.25;;
54023;SDS011;49584;38.820;-121.162;2022-09-11T18:44:29;46.85;;;39.38;;
54023;SDS011;49584;38.820;-121.162;2022-09-11T18:49:30;48.33;;;40.78;;
54023;SDS011;49584;38.820;-121.162;2022-09-11T18:54:32;51.60;;;37.00;;
54023;SDS011;49584;38.820;-121.162;2022-09-11T18:59:34;46.13;;;33.78;;
54023;SDS011;49584;38.820;-121.162;2022-09-11T19:04:35;47.10;;;34.22;;
54023;SDS011;49584;38.820;-121.162;2022-09-11T19:09:36;46.90;;;36.50;;
54023;SDS011;49584;38.820;-121.162;2022-09-11T19:14:38;43.97;;;36.25;;
54023;SDS011;49584;38.820;-121.162;2022-09-11T19:19:39;51.85;;;41.70;;
54023;SDS011;49584;38.820;-121.162;2022-09-11T19:24:40;48.30;;;37.03;;
54023;SDS011;49584;38.820;-121.162;2022-09-11T19:29:41;49.03;;;37.95;;
54023;SDS011;49584;38.820;-121.162;2022-09-11T19:34:43;52.30;;;44.13;;
54023;SDS011;49584;38.820;-121.162;2022-09-11T19:39:44;51.70;;;40.53;;
54023;SDS011;49584;38.820;-121.162;2022-09-11T19:44:47;45.80;;;37.00;;
54023;SDS011;49584;38.820;-121.162;2022-09-11T19:49:48;45.40;;;37.80;;
54023;SDS011;49584;38.820;-121.162;2022-09-11T19:54:50;49.88;;;39.78;;
54023;SDS011;49584;38.820;-121.162;2022-09-11T19:59:51;56.22;;;38.97;;
54023;SDS011;49584;38.820;-121.162;2022-09-11T20:04:52;45.83;;;38.47;;
54023;SDS011;49584;38.820;-121.162;2022-09-11T20:09:54;46.45;;;36.65;;
54023;SDS011;49584;38.820;-121.162;2022-09-11T20:14:55;47.88;;;38.38;;
54023;SDS011;49584;38.820;-121.162;2022-09-11T20:19:56;46.05;;;37.08;;
54023;SDS011;49584;38.820;-121.162;2022-09-11T20:25:00;51.47;;;38.08;;
54023;SDS011;49584;38.820;-121.162;2022-09-11T20:30:05;51.33;;;41.78;;
54023;SDS011;49584;38.820;-121.162;2022-09-11T20:35:06;52.70;;;44.50;;
54023;SDS011;49584;38.820;-121.162;2022-09-11T20:40:08;51.92;;;40.10;;
54023;SDS011;49584;38.820;-121.162;2022-09-11T20:45:10;45.72;;;38.53;;
54023;SDS011;49584;38.820;-121.162;2022-09-11T20:50:12;49.70;;;39.65;;
54023;SDS011;49584;38.820;-121.162;2022-09-11T20:55:13;46.80;;;38.17;;
54023;SDS011;49584;38.820;-121.162;2022-09-11T21:00:15;45.38;;;36.67;;
54023;SDS011;49584;38.820;-121.162;2022-09-11T21:05:16;43.22;;;35.25;;
54023;SDS011;49584;38.820;-121.162;2022-09-11T21:10:17;39.78;;;34.10;;
54023;SDS011;49584;38.820;-121.162;2022-09-11T21:15:18;41.50;;;35.28;;
54023;SDS011;49584;38.820;-121.162;2022-09-11T21:20:20;39.88;;;32.80;;
54023;SDS011;49584;38.820;-121.162;2022-09-11T21:25:21;38.10;;;31.00;;
54023;SDS011;49584;38.820;-121.162;2022-09-11T21:30:23;36.60;;;31.25;;
54023;SDS011;49584;38.820;-121.162;2022-09-11T21:35:24;40.03;;;30.58;;
54023;SDS011;49584;38.820;-121.162;2022-09-11T21:40:25;39.03;;;31.63;;
54023;SDS011;49584;38.820;-121.162;2022-09-11T21:45:26;36.42;;;29.98;;
54023;SDS011;49584;38.820;-121.162;2022-09-11T21:50:27;36.28;;;30.75;;
54023;SDS011;49584;38.820;-121.162;2022-09-11T21:55:29;37.15;;;30.75;;
54023;SDS011;49584;38.820;-121.162;2022-09-11T22:00:30;37.15;;;29.15;;
54023;SDS011;49584;38.820;-121.162;2022-09-11T22:05:36;31.70;;;28.10;;
54023;SDS011;49584;38.820;-121.162;2022-09-11T22:10:43;31.83;;;27.33;;
54023;SDS011;49584;38.820;-121.162;2022-09-11T22:20:49;41.00;;;28.40;;
54023;SDS011;49584;38.820;-121.162;2022-09-11T22:25:58;35.50;;;28.77;;
54023;SDS011;49584;38.820;-121.162;2022-09-11T22:31:11;40.88;;;29.27;;
54023;SDS011;49584;38.820;-121.162;2022-09-11T22:36:32;35.10;;;28.08;;
54023;SDS011;49584;38.820;-121.162;2022-09-11T22:41:34;34.83;;;28.23;;
54023;SDS011;49584;38.820;-121.162;2022-09-11T22:46:35;31.95;;;27.35;;
54023;SDS011;49584;38.820;-121.162;2022-09-11T22:51:37;40.25;;;27.30;;
54023;SDS011;49584;38.820;-121.162;2022-09-11T22:56:38;37.40;;;27.95;;
54023;SDS011;49584;38.820;-121.162;2022-09-11T23:01:39;32.35;;;27.13;;
54023;SDS011;49584;38.820;-121.162;2022-09-11T23:06:40;45.42;;;26.73;;
54023;SDS011;49584;38.820;-121.162;2022-09-11T23:12:00;33.63;;;25.65;;
54023;SDS011;49584;38.820;-121.162;2022-09-11T23:17:02;29.88;;;24.42;;
54023;SDS011;49584;38.820;-121.162;2022-09-11T23:22:04;32.15;;;23.42;;
54023;SDS011;49584;38.820;-121.162;2022-09-11T23:27:05;32.20;;;22.88;;
54023;SDS011;49584;38.820;-121.162;2022-09-11T23:32:06;29.83;;;22.10;;
54023;SDS011;49584;38.820;-121.162;2022-09-11T23:37:07;30.77;;;22.23;;
54023;SDS011;49584;38.820;-121.162;2022-09-11T23:42:08;32.53;;;21.85;;
54023;SDS011;49584;38.820;-121.162;2022-09-11T23:47:10;29.10;;;20.83;;
54023;SDS011;49584;38.820;-121.162;2022-09-11T23:52:11;28.92;;;20.88;;
54023;SDS011;49584;38.820;-121.162;2022-09-11T23:57:12;27.88;;;20.48;;
